sensor_id;sensor_type;location;lat;lon;timestamp;P1;durP1;ratioP1;P2;durP2;ratioP2
57309;SDS011;43153;50.984;18.204;2023-01-28T00:01:43;50.00;;;19.30;;
57309;SDS011;43153;50.984;18.204;2023-01-28T00:04:11;54.70;;;20.20;;
57309;SDS011;43153;50.984;18.204;2023-01-28T00:06:41;48.90;;;20.20;;
57309;SDS011;43153;50.984;18.204;2023-01-28T00:09:10;54.90;;;19.80;;
57309;SDS011;43153;50.984;18.204;2023-01-28T00:11:36;52.10;;;19.30;;
57309;SDS011;43153;50.984;18.204;2023-01-28T00:14:10;58.60;;;23.10;;
57309;SDS011;43153;50.984;18.204;2023-01-28T00:16:40;63.90;;;20.90;;
57309;SDS011;43153;50.984;18.204;2023-01-28T00:19:07;56.30;;;20.80;;
57309;SDS011;43153;50.984;18.204;2023-01-28T00:21:36;61.70;;;22.50;;
57309;SDS011;43153;50.984;18.204;2023-01-28T00:24:03;56.70;;;19.70;;
57309;SDS011;43153;50.984;18.204;2023-01-28T00:26:33;58.00;;;20.80;;
57309;SDS011;43153;50.984;18.204;2023-01-28T00:28:59;55.50;;;19.90;;
57309;SDS011;43153;50.984;18.204;2023-01-28T00:31:36;57.20;;;22.00;;
57309;SDS011;43153;50.984;18.204;2023-01-28T00:34:07;51.10;;;20.70;;
57309;SDS011;43153;50.984;18.204;2023-01-28T00:36:36;57.30;;;20.60;;
57309;SDS011;43153;50.984;18.204;2023-01-28T00:39:06;53.40;;;19.20;;
57309;SDS011;43153;50.984;18.204;2023-01-28T00:41:39;56.20;;;21.10;;
57309;SDS011;43153;50.984;18.204;2023-01-28T00:44:05;55.50;;;19.50;;
57309;SDS011;43153;50.984;18.204;2023-01-28T00:46:31;57.70;;;21.20;;
57309;SDS011;43153;50.984;18.204;2023-01-28T00:48:58;60.80;;;21.70;;
57309;SDS011;43153;50.984;18.204;2023-01-28T00:51:24;49.50;;;18.80;;
57309;SDS011;43153;50.984;18.204;2023-01-28T00:53:50;55.20;;;19.60;;
57309;SDS011;43153;50.984;18.204;2023-01-28T00:56:17;51.80;;;18.60;;
57309;SDS011;43153;50.984;18.204;2023-01-28T00:58:46;55.10;;;20.50;;
57309;SDS011;43153;50.984;18.204;2023-01-28T01:01:17;52.70;;;19.70;;
57309;SDS011;43153;50.984;18.204;2023-01-28T01:03:46;58.30;;;19.70;;
57309;SDS011;43153;50.984;18.204;2023-01-28T01:06:22;53.10;;;19.90;;
57309;SDS011;43153;50.984;18.204;2023-01-28T01:08:50;59.00;;;20.40;;
57309;SDS011;43153;50.984;18.204;2023-01-28T01:11:17;60.70;;;22.70;;
57309;SDS011;43153;50.984;18.204;2023-01-28T01:13:43;55.80;;;20.00;;
57309;SDS011;43153;50.984;18.204;2023-01-28T01:16:12;55.20;;;18.80;;
57309;SDS011;43153;50.984;18.204;2023-01-28T01:18:46;48.90;;;19.60;;
57309;SDS011;43153;50.984;18.204;2023-01-28T01:21:14;53.90;;;20.30;;
57309;SDS011;43153;50.984;18.204;2023-01-28T01:23:45;54.60;;;21.80;;
57309;SDS011;43153;50.984;18.204;2023-01-28T01:26:17;51.10;;;19.90;;
57309;SDS011;43153;50.984;18.204;2023-01-28T01:28:49;58.20;;;21.90;;
57309;SDS011;43153;50.984;18.204;2023-01-28T01:31:23;56.00;;;21.20;;
57309;SDS011;43153;50.984;18.204;2023-01-28T01:33:56;57.20;;;21.80;;
57309;SDS011;43153;50.984;18.204;2023-01-28T01:36:24;56.80;;;20.60;;
57309;SDS011;43153;50.984;18.204;2023-01-28T01:38:51;53.50;;;20.10;;
57309;SDS011;43153;50.984;18.204;2023-01-28T01:41:23;55.50;;;21.80;;
57309;SDS011;43153;50.984;18.204;2023-01-28T01:43:56;55.00;;;21.70;;
57309;SDS011;43153;50.984;18.204;2023-01-28T01:51:48;57.80;;;20.40;;
57309;SDS011;43153;50.984;18.204;2023-01-28T01:54:17;53.20;;;18.90;;
57309;SDS011;43153;50.984;18.204;2023-01-28T01:56:45;49.10;;;20.40;;
57309;SDS011;43153;50.984;18.204;2023-01-28T01:59:14;57.00;;;19.60;;
57309;SDS011;43153;50.984;18.204;2023-01-28T02:01:45;46.40;;;18.30;;
57309;SDS011;43153;50.984;18.204;2023-01-28T02:04:18;47.80;;;18.50;;
57309;SDS011;43153;50.984;18.204;2023-01-28T02:07:10;52.40;;;20.20;;
57309;SDS011;43153;50.984;18.204;2023-01-28T02:09:44;46.00;;;18.00;;
57309;SDS011;43153;50.984;18.204;2023-01-28T02:12:46;50.00;;;18.80;;
57309;SDS011;43153;50.984;18.204;2023-01-28T02:15:25;54.70;;;18.20;;
57309;SDS011;43153;50.984;18.204;2023-01-28T02:17:54;58.10;;;19.60;;
57309;SDS011;43153;50.984;18.204;2023-01-28T02:20:33;47.90;;;17.40;;
57309;SDS011;43153;50.984;18.204;2023-01-28T02:31:56;50.00;;;18.50;;
57309;SDS011;43153;50.984;18.204;2023-01-28T02:39:32;43.20;;;17.60;;
57309;SDS011;43153;50.984;18.204;2023-01-28T02:42:08;43.00;;;18.40;;
57309;SDS011;43153;50.984;18.204;2023-01-28T02:44:49;46.10;;;17.70;;
57309;SDS011;43153;50.984;18.204;2023-01-28T02:47:16;44.40;;;17.50;;
57309;SDS011;43153;50.984;18.204;2023-01-28T02:50:06;46.20;;;18.10;;
57309;SDS011;43153;50.984;18.204;2023-01-28T02:58:25;38.40;;;16.70;;
57309;SDS011;43153;50.984;18.204;2023-01-28T03:03:57;41.30;;;16.10;;
57309;SDS011;43153;50.984;18.204;2023-01-28T03:06:29;45.70;;;17.00;;
57309;SDS011;43153;50.984;18.204;2023-01-28T03:09:00;37.10;;;15.00;;
57309;SDS011;43153;50.984;18.204;2023-01-28T03:11:52;42.80;;;15.90;;
57309;SDS011;43153;50.984;18.204;2023-01-28T03:14:51;39.40;;;16.50;;
57309;SDS011;43153;50.984;18.204;2023-01-28T03:20:33;45.70;;;17.20;;
57309;SDS011;43153;50.984;18.204;2023-01-28T03:23:31;38.90;;;16.30;;
57309;SDS011;43153;50.984;18.204;2023-01-28T03:26:37;39.40;;;14.60;;
57309;SDS011;43153;50.984;18.204;2023-01-28T03:29:50;43.00;;;17.00;;
57309;SDS011;43153;50.984;18.204;2023-01-28T03:32:39;43.10;;;15.80;;
57309;SDS011;43153;50.984;18.204;2023-01-28T03:35:27;37.70;;;14.20;;
57309;SDS011;43153;50.984;18.204;2023-01-28T03:38:14;42.10;;;15.20;;
57309;SDS011;43153;50.984;18.204;2023-01-28T03:40:57;42.10;;;15.90;;
57309;SDS011;43153;50.984;18.204;2023-01-28T03:43:25;41.70;;;15.60;;
57309;SDS011;43153;50.984;18.204;2023-01-28T03:45:59;34.20;;;15.20;;
57309;SDS011;43153;50.984;18.204;2023-01-28T03:48:27;43.80;;;16.30;;
57309;SDS011;43153;50.984;18.204;2023-01-28T03:50:54;42.10;;;17.10;;
57309;SDS011;43153;50.984;18.204;2023-01-28T03:53:24;45.40;;;16.00;;
57309;SDS011;43153;50.984;18.204;2023-01-28T03:55:52;39.20;;;17.70;;
57309;SDS011;43153;50.984;18.204;2023-01-28T03:58:18;45.30;;;18.00;;
57309;SDS011;43153;50.984;18.204;2023-01-28T04:00:54;41.90;;;16.20;;
57309;SDS011;43153;50.984;18.204;2023-01-28T04:03:20;45.60;;;16.30;;
57309;SDS011;43153;50.984;18.204;2023-01-28T04:08:30;45.90;;;15.80;;
57309;SDS011;43153;50.984;18.204;2023-01-28T04:11:24;42.40;;;15.50;;
57309;SDS011;43153;50.984;18.204;2023-01-28T04:13:51;44.80;;;15.60;;
57309;SDS011;43153;50.984;18.204;2023-01-28T04:18:49;49.30;;;17.00;;
57309;SDS011;43153;50.984;18.204;2023-01-28T04:21:16;38.40;;;14.40;;
57309;SDS011;43153;50.984;18.204;2023-01-28T04:23:43;47.40;;;16.20;;
57309;SDS011;43153;50.984;18.204;2023-01-28T04:26:24;37.50;;;16.20;;
57309;SDS011;43153;50.984;18.204;2023-01-28T04:28:58;33.70;;;13.00;;
57309;SDS011;43153;50.984;18.204;2023-01-28T04:31:25;38.30;;;16.30;;
57309;SDS011;43153;50.984;18.204;2023-01-28T04:33:59;36.50;;;13.90;;
57309;SDS011;43153;50.984;18.204;2023-01-28T04:36:26;36.50;;;14.30;;
57309;SDS011;43153;50.984;18.204;2023-01-28T04:38:53;39.90;;;15.30;;
57309;SDS011;43153;50.984;18.204;2023-01-28T04:41:28;41.50;;;17.00;;
57309;SDS011;43153;50.984;18.204;2023-01-28T04:43:54;35.50;;;16.40;;
57309;SDS011;43153;50.984;18.204;2023-01-28T04:46:20;37.50;;;14.80;;
57309;SDS011;43153;50.984;18.204;2023-01-28T04:48:46;39.30;;;16.20;;
57309;SDS011;43153;50.984;18.204;2023-01-28T04:51:13;34.60;;;14.70;;
57309;SDS011;43153;50.984;18.204;2023-01-28T04:53:39;37.60;;;14.40;;
57309;SDS011;43153;50.984;18.204;2023-01-28T04:56:05;39.10;;;14.20;;
57309;SDS011;43153;50.984;18.204;2023-01-28T04:58:31;37.80;;;15.50;;
57309;SDS011;43153;50.984;18.204;2023-01-28T05:00:57;35.50;;;13.80;;
57309;SDS011;43153;50.984;18.204;2023-01-28T05:03:24;36.10;;;14.10;;
57309;SDS011;43153;50.984;18.204;2023-01-28T05:05:51;38.90;;;14.80;;
57309;SDS011;43153;50.984;18.204;2023-01-28T05:08:18;33.60;;;13.60;;
57309;SDS011;43153;50.984;18.204;2023-01-28T05:10:44;34.40;;;13.40;;
57309;SDS011;43153;50.984;18.204;2023-01-28T05:13:14;32.90;;;13.90;;
57309;SDS011;43153;50.984;18.204;2023-01-28T05:15:41;36.60;;;15.00;;
57309;SDS011;43153;50.984;18.204;2023-01-28T05:18:07;34.10;;;15.30;;
57309;SDS011;43153;50.984;18.204;2023-01-28T05:20:34;38.60;;;14.10;;
57309;SDS011;43153;50.984;18.204;2023-01-28T05:23:09;35.20;;;14.20;;
57309;SDS011;43153;50.984;18.204;2023-01-28T05:25:37;30.80;;;13.30;;
57309;SDS011;43153;50.984;18.204;2023-01-28T05:28:04;30.40;;;13.80;;
57309;SDS011;43153;50.984;18.204;2023-01-28T05:30:31;35.30;;;14.10;;
57309;SDS011;43153;50.984;18.204;2023-01-28T05:32:57;33.00;;;12.50;;
57309;SDS011;43153;50.984;18.204;2023-01-28T05:35:24;37.70;;;14.00;;
57309;SDS011;43153;50.984;18.204;2023-01-28T05:37:50;35.00;;;15.30;;
57309;SDS011;43153;50.984;18.204;2023-01-28T05:40:16;32.10;;;12.90;;
57309;SDS011;43153;50.984;18.204;2023-01-28T05:42:44;34.20;;;13.50;;
57309;SDS011;43153;50.984;18.204;2023-01-28T05:45:13;34.90;;;14.50;;
57309;SDS011;43153;50.984;18.204;2023-01-28T05:47:47;30.70;;;13.20;;
57309;SDS011;43153;50.984;18.204;2023-01-28T05:50:22;36.40;;;15.20;;
57309;SDS011;43153;50.984;18.204;2023-01-28T05:52:50;34.80;;;14.30;;
57309;SDS011;43153;50.984;18.204;2023-01-28T05:55:17;34.70;;;13.30;;
57309;SDS011;43153;50.984;18.204;2023-01-28T05:57:46;32.20;;;13.00;;
57309;SDS011;43153;50.984;18.204;2023-01-28T06:00:23;34.50;;;14.60;;
57309;SDS011;43153;50.984;18.204;2023-01-28T06:02:51;32.40;;;14.00;;
57309;SDS011;43153;50.984;18.204;2023-01-28T06:05:21;33.30;;;15.00;;
57309;SDS011;43153;50.984;18.204;2023-01-28T06:07:47;36.70;;;14.30;;
57309;SDS011;43153;50.984;18.204;2023-01-28T06:10:15;30.00;;;13.50;;
57309;SDS011;43153;50.984;18.204;2023-01-28T06:12:49;35.60;;;15.10;;
57309;SDS011;43153;50.984;18.204;2023-01-28T06:15:22;29.90;;;12.30;;
57309;SDS011;43153;50.984;18.204;2023-01-28T06:17:56;34.20;;;13.90;;
57309;SDS011;43153;50.984;18.204;2023-01-28T06:20:23;35.30;;;14.20;;
57309;SDS011;43153;50.984;18.204;2023-01-28T06:22:51;31.90;;;13.00;;
57309;SDS011;43153;50.984;18.204;2023-01-28T06:25:17;36.60;;;14.00;;
57309;SDS011;43153;50.984;18.204;2023-01-28T06:27:45;32.50;;;12.90;;
57309;SDS011;43153;50.984;18.204;2023-01-28T06:30:14;31.60;;;12.10;;
57309;SDS011;43153;50.984;18.204;2023-01-28T06:32:42;32.20;;;13.90;;
57309;SDS011;43153;50.984;18.204;2023-01-28T06:35:10;29.90;;;12.00;;
57309;SDS011;43153;50.984;18.204;2023-01-28T06:37:38;33.20;;;13.60;;
57309;SDS011;43153;50.984;18.204;2023-01-28T06:40:06;35.60;;;13.50;;
57309;SDS011;43153;50.984;18.204;2023-01-28T06:42:33;29.50;;;12.10;;
57309;SDS011;43153;50.984;18.204;2023-01-28T06:45:15;33.80;;;12.70;;
57309;SDS011;43153;50.984;18.204;2023-01-28T06:50:13;34.10;;;12.10;;
57309;SDS011;43153;50.984;18.204;2023-01-28T06:52:40;33.00;;;13.20;;
57309;SDS011;43153;50.984;18.204;2023-01-28T06:55:07;31.80;;;13.20;;
57309;SDS011;43153;50.984;18.204;2023-01-28T06:57:36;34.60;;;13.10;;
57309;SDS011;43153;50.984;18.204;2023-01-28T07:00:07;34.80;;;13.80;;
57309;SDS011;43153;50.984;18.204;2023-01-28T07:02:43;33.40;;;13.20;;
57309;SDS011;43153;50.984;18.204;2023-01-28T07:05:10;29.20;;;12.20;;
57309;SDS011;43153;50.984;18.204;2023-01-28T07:07:38;26.20;;;12.30;;
57309;SDS011;43153;50.984;18.204;2023-01-28T07:10:12;29.60;;;11.10;;
57309;SDS011;43153;50.984;18.204;2023-01-28T07:12:41;27.10;;;11.80;;
57309;SDS011;43153;50.984;18.204;2023-01-28T07:15:08;26.80;;;10.30;;
57309;SDS011;43153;50.984;18.204;2023-01-28T07:17:43;23.70;;;10.60;;
57309;SDS011;43153;50.984;18.204;2023-01-28T07:20:11;26.60;;;10.40;;
57309;SDS011;43153;50.984;18.204;2023-01-28T07:22:39;28.50;;;10.70;;
57309;SDS011;43153;50.984;18.204;2023-01-28T07:25:07;22.90;;;9.80;;
57309;SDS011;43153;50.984;18.204;2023-01-28T07:27:35;23.20;;;9.60;;
57309;SDS011;43153;50.984;18.204;2023-01-28T07:30:03;24.70;;;9.50;;
57309;SDS011;43153;50.984;18.204;2023-01-28T07:32:29;24.60;;;9.90;;
57309;SDS011;43153;50.984;18.204;2023-01-28T07:34:55;23.20;;;8.90;;
57309;SDS011;43153;50.984;18.204;2023-01-28T07:37:22;23.00;;;8.80;;
57309;SDS011;43153;50.984;18.204;2023-01-28T07:39:53;19.40;;;8.00;;
57309;SDS011;43153;50.984;18.204;2023-01-28T07:42:20;25.50;;;9.40;;
57309;SDS011;43153;50.984;18.204;2023-01-28T07:44:46;20.90;;;8.20;;
57309;SDS011;43153;50.984;18.204;2023-01-28T07:47:14;24.40;;;10.00;;
57309;SDS011;43153;50.984;18.204;2023-01-28T07:49:40;22.70;;;8.70;;
57309;SDS011;43153;50.984;18.204;2023-01-28T07:52:09;23.90;;;9.00;;
57309;SDS011;43153;50.984;18.204;2023-01-28T07:54:35;20.30;;;7.70;;
57309;SDS011;43153;50.984;18.204;2023-01-28T07:57:06;20.90;;;8.30;;
57309;SDS011;43153;50.984;18.204;2023-01-28T07:59:36;19.20;;;6.80;;
57309;SDS011;43153;50.984;18.204;2023-01-28T08:02:02;20.90;;;8.40;;
57309;SDS011;43153;50.984;18.204;2023-01-28T08:04:28;18.10;;;6.70;;
57309;SDS011;43153;50.984;18.204;2023-01-28T08:06:55;20.80;;;8.30;;
57309;SDS011;43153;50.984;18.204;2023-01-28T08:09:22;21.70;;;7.90;;
57309;SDS011;43153;50.984;18.204;2023-01-28T08:11:48;23.60;;;8.80;;
57309;SDS011;43153;50.984;18.204;2023-01-28T08:14:14;19.40;;;8.50;;
57309;SDS011;43153;50.984;18.204;2023-01-28T08:16:41;21.50;;;8.70;;
57309;SDS011;43153;50.984;18.204;2023-01-28T08:19:07;26.40;;;8.60;;
57309;SDS011;43153;50.984;18.204;2023-01-28T08:21:36;20.30;;;9.20;;
57309;SDS011;43153;50.984;18.204;2023-01-28T08:24:08;28.60;;;11.30;;
57309;SDS011;43153;50.984;18.204;2023-01-28T08:26:34;27.70;;;11.00;;
57309;SDS011;43153;50.984;18.204;2023-01-28T08:29:00;22.70;;;10.40;;
57309;SDS011;43153;50.984;18.204;2023-01-28T08:31:27;25.20;;;9.50;;
57309;SDS011;43153;50.984;18.204;2023-01-28T08:33:54;22.50;;;9.20;;
57309;SDS011;43153;50.984;18.204;2023-01-28T08:36:20;24.50;;;8.70;;
57309;SDS011;43153;50.984;18.204;2023-01-28T08:38:50;26.10;;;9.40;;
57309;SDS011;43153;50.984;18.204;2023-01-28T08:41:27;24.70;;;9.80;;
57309;SDS011;43153;50.984;18.204;2023-01-28T08:43:57;22.30;;;9.70;;
57309;SDS011;43153;50.984;18.204;2023-01-28T08:46:29;24.70;;;8.60;;
57309;SDS011;43153;50.984;18.204;2023-01-28T08:48:56;24.80;;;9.80;;
57309;SDS011;43153;50.984;18.204;2023-01-28T08:51:25;23.10;;;9.70;;
57309;SDS011;43153;50.984;18.204;2023-01-28T08:53:53;23.80;;;9.60;;
57309;SDS011;43153;50.984;18.204;2023-01-28T08:56:20;25.10;;;9.80;;
57309;SDS011;43153;50.984;18.204;2023-01-28T08:58:49;26.70;;;10.10;;
57309;SDS011;43153;50.984;18.204;2023-01-28T09:01:17;27.70;;;10.30;;
57309;SDS011;43153;50.984;18.204;2023-01-28T09:03:44;25.70;;;10.50;;
57309;SDS011;43153;50.984;18.204;2023-01-28T09:06:13;25.10;;;10.70;;
57309;SDS011;43153;50.984;18.204;2023-01-28T09:08:39;22.30;;;9.10;;
57309;SDS011;43153;50.984;18.204;2023-01-28T09:11:06;21.80;;;8.20;;
57309;SDS011;43153;50.984;18.204;2023-01-28T09:13:32;21.40;;;7.60;;
57309;SDS011;43153;50.984;18.204;2023-01-28T09:15:59;24.80;;;9.40;;
57309;SDS011;43153;50.984;18.204;2023-01-28T09:18:29;23.50;;;8.70;;
57309;SDS011;43153;50.984;18.204;2023-01-28T09:20:55;24.30;;;9.30;;
57309;SDS011;43153;50.984;18.204;2023-01-28T09:23:23;26.30;;;10.00;;
57309;SDS011;43153;50.984;18.204;2023-01-28T09:25:50;24.00;;;9.20;;
57309;SDS011;43153;50.984;18.204;2023-01-28T09:28:16;23.00;;;9.40;;
57309;SDS011;43153;50.984;18.204;2023-01-28T09:30:42;28.40;;;10.70;;
57309;SDS011;43153;50.984;18.204;2023-01-28T09:33:10;20.80;;;8.40;;
57309;SDS011;43153;50.984;18.204;2023-01-28T09:35:42;24.60;;;9.10;;
57309;SDS011;43153;50.984;18.204;2023-01-28T09:38:08;22.50;;;8.70;;
57309;SDS011;43153;50.984;18.204;2023-01-28T09:40:39;27.90;;;10.10;;
57309;SDS011;43153;50.984;18.204;2023-01-28T09:43:25;25.20;;;9.60;;
57309;SDS011;43153;50.984;18.204;2023-01-28T09:46:11;23.10;;;9.80;;
57309;SDS011;43153;50.984;18.204;2023-01-28T09:48:42;22.40;;;8.30;;
57309;SDS011;43153;50.984;18.204;2023-01-28T09:51:26;26.30;;;10.60;;
57309;SDS011;43153;50.984;18.204;2023-01-28T09:53:55;27.90;;;9.20;;
57309;SDS011;43153;50.984;18.204;2023-01-28T09:56:37;22.90;;;9.50;;
57309;SDS011;43153;50.984;18.204;2023-01-28T09:59:17;26.20;;;10.30;;
57309;SDS011;43153;50.984;18.204;2023-01-28T10:02:03;22.70;;;9.00;;
57309;SDS011;43153;50.984;18.204;2023-01-28T10:04:57;25.00;;;10.90;;
57309;SDS011;43153;50.984;18.204;2023-01-28T10:10:26;24.30;;;10.00;;
57309;SDS011;43153;50.984;18.204;2023-01-28T10:13:16;33.50;;;11.60;;
57309;SDS011;43153;50.984;18.204;2023-01-28T10:21:30;25.40;;;9.40;;
57309;SDS011;43153;50.984;18.204;2023-01-28T10:24:09;21.70;;;8.70;;
57309;SDS011;43153;50.984;18.204;2023-01-28T10:26:40;23.00;;;8.80;;
57309;SDS011;43153;50.984;18.204;2023-01-28T10:29:13;24.30;;;9.00;;
57309;SDS011;43153;50.984;18.204;2023-01-28T10:31:51;21.00;;;8.60;;
57309;SDS011;43153;50.984;18.204;2023-01-28T10:34:21;23.80;;;9.00;;
57309;SDS011;43153;50.984;18.204;2023-01-28T10:36:47;25.80;;;10.80;;
57309;SDS011;43153;50.984;18.204;2023-01-28T10:39:21;21.30;;;9.20;;
57309;SDS011;43153;50.984;18.204;2023-01-28T10:42:31;23.90;;;9.10;;
57309;SDS011;43153;50.984;18.204;2023-01-28T10:45:26;20.40;;;8.50;;
57309;SDS011;43153;50.984;18.204;2023-01-28T10:50:29;23.10;;;8.90;;
57309;SDS011;43153;50.984;18.204;2023-01-28T10:52:57;22.10;;;7.90;;
57309;SDS011;43153;50.984;18.204;2023-01-28T10:55:26;23.90;;;9.20;;
57309;SDS011;43153;50.984;18.204;2023-01-28T10:57:55;23.40;;;9.10;;
57309;SDS011;43153;50.984;18.204;2023-01-28T11:00:28;20.40;;;8.00;;
57309;SDS011;43153;50.984;18.204;2023-01-28T11:03:00;20.90;;;8.20;;
57309;SDS011;43153;50.984;18.204;2023-01-28T11:05:30;23.60;;;9.10;;
57309;SDS011;43153;50.984;18.204;2023-01-28T11:08:11;21.00;;;7.30;;
57309;SDS011;43153;50.984;18.204;2023-01-28T11:10:41;19.60;;;8.30;;
57309;SDS011;43153;50.984;18.204;2023-01-28T11:13:29;24.80;;;9.50;;
57309;SDS011;43153;50.984;18.204;2023-01-28T11:18:32;24.70;;;10.60;;
57309;SDS011;43153;50.984;18.204;2023-01-28T11:21:14;26.60;;;10.00;;
57309;SDS011;43153;50.984;18.204;2023-01-28T11:23:54;27.30;;;11.40;;
57309;SDS011;43153;50.984;18.204;2023-01-28T11:26:26;32.10;;;11.00;;
57309;SDS011;43153;50.984;18.204;2023-01-28T11:29:02;32.00;;;12.70;;
57309;SDS011;43153;50.984;18.204;2023-01-28T11:31:28;27.30;;;11.50;;
57309;SDS011;43153;50.984;18.204;2023-01-28T11:34:06;27.30;;;12.00;;
57309;SDS011;43153;50.984;18.204;2023-01-28T11:36:34;28.20;;;11.60;;
57309;SDS011;43153;50.984;18.204;2023-01-28T11:39:14;31.90;;;13.10;;
57309;SDS011;43153;50.984;18.204;2023-01-28T11:41:43;27.60;;;12.00;;
57309;SDS011;43153;50.984;18.204;2023-01-28T11:44:26;30.20;;;12.20;;
57309;SDS011;43153;50.984;18.204;2023-01-28T11:58:04;34.40;;;13.70;;
57309;SDS011;43153;50.984;18.204;2023-01-28T12:14:26;33.00;;;14.10;;
57309;SDS011;43153;50.984;18.204;2023-01-28T12:25:09;31.90;;;13.50;;
57309;SDS011;43153;50.984;18.204;2023-01-28T12:33:29;41.10;;;17.30;;
57309;SDS011;43153;50.984;18.204;2023-01-28T12:39:19;34.90;;;15.00;;
57309;SDS011;43153;50.984;18.204;2023-01-28T12:42:19;35.90;;;16.90;;
57309;SDS011;43153;50.984;18.204;2023-01-28T12:44:54;37.80;;;15.70;;
57309;SDS011;43153;50.984;18.204;2023-01-28T12:47:44;37.00;;;15.00;;
57309;SDS011;43153;50.984;18.204;2023-01-28T12:50:20;38.80;;;17.00;;
57309;SDS011;43153;50.984;18.204;2023-01-28T12:52:54;38.90;;;16.80;;
57309;SDS011;43153;50.984;18.204;2023-01-28T12:58:20;38.10;;;16.30;;
57309;SDS011;43153;50.984;18.204;2023-01-28T13:00:55;40.00;;;15.50;;
57309;SDS011;43153;50.984;18.204;2023-01-28T13:03:38;33.20;;;14.90;;
57309;SDS011;43153;50.984;18.204;2023-01-28T13:06:23;36.60;;;15.60;;
57309;SDS011;43153;50.984;18.204;2023-01-28T13:08:55;38.30;;;17.30;;
57309;SDS011;43153;50.984;18.204;2023-01-28T13:11:44;38.20;;;16.20;;
57309;SDS011;43153;50.984;18.204;2023-01-28T13:14:13;41.60;;;17.20;;
57309;SDS011;43153;50.984;18.204;2023-01-28T13:16:41;37.40;;;16.20;;
57309;SDS011;43153;50.984;18.204;2023-01-28T13:21:42;34.30;;;14.70;;
57309;SDS011;43153;50.984;18.204;2023-01-28T13:29:37;34.70;;;14.70;;
57309;SDS011;43153;50.984;18.204;2023-01-28T13:32:24;34.00;;;14.40;;
57309;SDS011;43153;50.984;18.204;2023-01-28T13:35:23;35.20;;;15.40;;
57309;SDS011;43153;50.984;18.204;2023-01-28T13:38:15;32.70;;;16.20;;
57309;SDS011;43153;50.984;18.204;2023-01-28T13:40:42;36.40;;;15.30;;
57309;SDS011;43153;50.984;18.204;2023-01-28T13:46:04;40.90;;;18.80;;
57309;SDS011;43153;50.984;18.204;2023-01-28T13:48:49;49.20;;;19.20;;
57309;SDS011;43153;50.984;18.204;2023-01-28T13:51:30;44.90;;;18.00;;
57309;SDS011;43153;50.984;18.204;2023-01-28T13:53:59;44.50;;;18.10;;
57309;SDS011;43153;50.984;18.204;2023-01-28T14:18:40;38.10;;;16.30;;
57309;SDS011;43153;50.984;18.204;2023-01-28T14:21:19;43.20;;;18.60;;
57309;SDS011;43153;50.984;18.204;2023-01-28T14:23:48;35.70;;;17.40;;
57309;SDS011;43153;50.984;18.204;2023-01-28T14:32:13;39.60;;;17.20;;
57309;SDS011;43153;50.984;18.204;2023-01-28T14:34:41;38.40;;;16.50;;
57309;SDS011;43153;50.984;18.204;2023-01-28T14:37:27;39.00;;;17.50;;
57309;SDS011;43153;50.984;18.204;2023-01-28T14:39:57;40.10;;;16.70;;
57309;SDS011;43153;50.984;18.204;2023-01-28T14:42:26;34.90;;;17.00;;
57309;SDS011;43153;50.984;18.204;2023-01-28T14:58:39;41.90;;;17.90;;
57309;SDS011;43153;50.984;18.204;2023-01-28T15:01:22;44.40;;;18.00;;
57309;SDS011;43153;50.984;18.204;2023-01-28T15:03:53;41.10;;;18.60;;
57309;SDS011;43153;50.984;18.204;2023-01-28T15:06:21;42.70;;;19.00;;
57309;SDS011;43153;50.984;18.204;2023-01-28T15:09:04;44.00;;;19.30;;
57309;SDS011;43153;50.984;18.204;2023-01-28T15:11:34;44.10;;;17.90;;
57309;SDS011;43153;50.984;18.204;2023-01-28T15:14:03;37.90;;;17.10;;
57309;SDS011;43153;50.984;18.204;2023-01-28T15:16:30;39.00;;;18.40;;
57309;SDS011;43153;50.984;18.204;2023-01-28T15:18:58;41.00;;;16.90;;
57309;SDS011;43153;50.984;18.204;2023-01-28T15:21:33;39.10;;;17.40;;
57309;SDS011;43153;50.984;18.204;2023-01-28T15:24:00;40.20;;;17.60;;
57309;SDS011;43153;50.984;18.204;2023-01-28T15:26:31;41.20;;;17.50;;
57309;SDS011;43153;50.984;18.204;2023-01-28T15:29:01;42.70;;;18.60;;
57309;SDS011;43153;50.984;18.204;2023-01-28T15:31:31;46.60;;;16.60;;
57309;SDS011;43153;50.984;18.204;2023-01-28T15:36:26;38.10;;;17.00;;
57309;SDS011;43153;50.984;18.204;2023-01-28T15:38:53;47.20;;;18.10;;
57309;SDS011;43153;50.984;18.204;2023-01-28T15:41:23;42.20;;;16.30;;
57309;SDS011;43153;50.984;18.204;2023-01-28T15:43:55;47.60;;;18.90;;
57309;SDS011;43153;50.984;18.204;2023-01-28T15:46:23;46.70;;;20.60;;
57309;SDS011;43153;50.984;18.204;2023-01-28T15:48:59;41.70;;;19.00;;
57309;SDS011;43153;50.984;18.204;2023-01-28T15:51:31;44.50;;;19.00;;
57309;SDS011;43153;50.984;18.204;2023-01-28T15:54:03;46.90;;;18.90;;
57309;SDS011;43153;50.984;18.204;2023-01-28T15:56:35;40.40;;;17.30;;
57309;SDS011;43153;50.984;18.204;2023-01-28T16:01:35;49.50;;;20.30;;
57309;SDS011;43153;50.984;18.204;2023-01-28T16:04:02;47.90;;;21.40;;
57309;SDS011;43153;50.984;18.204;2023-01-28T16:06:33;57.10;;;24.00;;
57309;SDS011;43153;50.984;18.204;2023-01-28T16:09:02;58.20;;;24.70;;
57309;SDS011;43153;50.984;18.204;2023-01-28T16:11:48;53.90;;;23.30;;
57309;SDS011;43153;50.984;18.204;2023-01-28T16:14:39;60.80;;;27.70;;
57309;SDS011;43153;50.984;18.204;2023-01-28T16:17:18;52.70;;;22.40;;
57309;SDS011;43153;50.984;18.204;2023-01-28T16:20:04;57.00;;;24.20;;
57309;SDS011;43153;50.984;18.204;2023-01-28T16:25:00;59.70;;;25.30;;
57309;SDS011;43153;50.984;18.204;2023-01-28T16:27:44;50.90;;;21.20;;
57309;SDS011;43153;50.984;18.204;2023-01-28T16:30:10;48.90;;;23.00;;
57309;SDS011;43153;50.984;18.204;2023-01-28T16:32:38;44.20;;;22.20;;
57309;SDS011;43153;50.984;18.204;2023-01-28T16:35:13;52.00;;;23.10;;
57309;SDS011;43153;50.984;18.204;2023-01-28T16:37:42;55.10;;;24.40;;
57309;SDS011;43153;50.984;18.204;2023-01-28T16:40:13;55.10;;;21.20;;
57309;SDS011;43153;50.984;18.204;2023-01-28T16:42:41;48.20;;;22.40;;
57309;SDS011;43153;50.984;18.204;2023-01-28T16:45:19;49.40;;;22.30;;
57309;SDS011;43153;50.984;18.204;2023-01-28T16:47:47;52.40;;;22.60;;
57309;SDS011;43153;50.984;18.204;2023-01-28T16:50:17;50.90;;;22.50;;
57309;SDS011;43153;50.984;18.204;2023-01-28T16:52:45;48.80;;;21.70;;
57309;SDS011;43153;50.984;18.204;2023-01-28T16:55:14;46.60;;;21.80;;
57309;SDS011;43153;50.984;18.204;2023-01-28T16:57:43;47.90;;;22.60;;
57309;SDS011;43153;50.984;18.204;2023-01-28T17:00:16;55.60;;;24.00;;
57309;SDS011;43153;50.984;18.204;2023-01-28T17:02:48;47.00;;;22.70;;
57309;SDS011;43153;50.984;18.204;2023-01-28T17:05:17;42.80;;;19.80;;
57309;SDS011;43153;50.984;18.204;2023-01-28T17:07:46;51.30;;;22.20;;
57309;SDS011;43153;50.984;18.204;2023-01-28T17:12:48;47.40;;;20.70;;
57309;SDS011;43153;50.984;18.204;2023-01-28T17:15:14;42.20;;;20.50;;
57309;SDS011;43153;50.984;18.204;2023-01-28T17:17:40;46.80;;;21.00;;
57309;SDS011;43153;50.984;18.204;2023-01-28T17:20:06;49.00;;;19.90;;